sensor_id;sensor_type;location;lat;lon;timestamp;temperature;humidity
14908;DHT22;7545;52.092;7.006;2023-09-19T00:00:21;17.50;99.90
14908;DHT22;7545;52.092;7.006;2023-09-19T00:02:55;17.50;99.90
14908;DHT22;7545;52.092;7.006;2023-09-19T00:05:25;17.50;99.90
14908;DHT22;7545;52.092;7.006;2023-09-19T00:07:54;17.50;99.90
14908;DHT22;7545;52.092;7.006;2023-09-19T00:10:23;17.50;99.90
14908;DHT22;7545;52.092;7.006;2023-09-19T00:12:52;17.40;99.90
14908;DHT22;7545;52.092;7.006;2023-09-19T00:15:25;17.40;99.90
14908;DHT22;7545;52.092;7.006;2023-09-19T00:17:51;17.40;99.90
14908;DHT22;7545;52.092;7.006;2023-09-19T00:20:18;17.40;99.90
14908;DHT22;7545;52.092;7.006;2023-09-19T00:22:44;17.40;99.90
14908;DHT22;7545;52.092;7.006;2023-09-19T00:25:10;17.40;99.90
14908;DHT22;7545;52.092;7.006;2023-09-19T00:27:38;17.40;99.90
14908;DHT22;7545;52.092;7.006;2023-09-19T00:30:09;17.40;99.90
14908;DHT22;7545;52.092;7.006;2023-09-19T00:32:47;17.40;99.90
14908;DHT22;7545;52.092;7.006;2023-09-19T00:35:16;17.40;99.90
14908;DHT22;7545;52.092;7.006;2023-09-19T00:37:41;17.40;99.90
14908;DHT22;7545;52.092;7.006;2023-09-19T00:40:08;17.40;99.90
14908;DHT22;7545;52.092;7.006;2023-09-19T00:42:40;17.30;99.90
14908;DHT22;7545;52.092;7.006;2023-09-19T00:45:07;17.30;99.90
14908;DHT22;7545;52.092;7.006;2023-09-19T00:47:35;17.30;99.90
14908;DHT22;7545;52.092;7.006;2023-09-19T00:50:03;17.30;99.90
14908;DHT22;7545;52.092;7.006;2023-09-19T00:52:30;17.30;99.90
14908;DHT22;7545;52.092;7.006;2023-09-19T00:54:57;17.30;99.90
14908;DHT22;7545;52.092;7.006;2023-09-19T00:57:25;17.20;99.90
14908;DHT22;7545;52.092;7.006;2023-09-19T00:59:54;17.20;99.90
14908;DHT22;7545;52.092;7.006;2023-09-19T01:02:21;17.20;99.90
14908;DHT22;7545;52.092;7.006;2023-09-19T01:04:47;17.10;99.90
14908;DHT22;7545;52.092;7.006;2023-09-19T01:07:12;17.20;99.90
14908;DHT22;7545;52.092;7.006;2023-09-19T01:09:41;17.20;99.90
14908;DHT22;7545;52.092;7.006;2023-09-19T01:12:07;17.20;99.90
14908;DHT22;7545;52.092;7.006;2023-09-19T01:15:06;17.20;99.90
14908;DHT22;7545;52.092;7.006;2023-09-19T01:17:51;17.20;99.90
14908;DHT22;7545;52.092;7.006;2023-09-19T01:31:59;17.20;99.90
14908;DHT22;7545;52.092;7.006;2023-09-19T01:34:50;17.10;99.90
14908;DHT22;7545;52.092;7.006;2023-09-19T01:37:20;17.20;99.90
14908;DHT22;7545;52.092;7.006;2023-09-19T01:39:57;17.20;99.90
14908;DHT22;7545;52.092;7.006;2023-09-19T01:42:43;17.10;99.90
14908;DHT22;7545;52.092;7.006;2023-09-19T01:45:14;17.10;99.90
14908;DHT22;7545;52.092;7.006;2023-09-19T01:47:51;17.10;99.90
14908;DHT22;7545;52.092;7.006;2023-09-19T01:50:29;17.10;99.90
14908;DHT22;7545;52.092;7.006;2023-09-19T01:53:13;17.10;99.90
14908;DHT22;7545;52.092;7.006;2023-09-19T01:55:48;17.10;99.90
14908;DHT22;7545;52.092;7.006;2023-09-19T01:58:40;17.10;99.90
14908;DHT22;7545;52.092;7.006;2023-09-19T02:01:12;17.10;99.90
14908;DHT22;7545;52.092;7.006;2023-09-19T02:03:41;17.10;99.90
14908;DHT22;7545;52.092;7.006;2023-09-19T02:06:07;17.00;99.90
14908;DHT22;7545;52.092;7.006;2023-09-19T02:08:37;17.00;99.90
14908;DHT22;7545;52.092;7.006;2023-09-19T02:11:02;17.00;99.90
14908;DHT22;7545;52.092;7.006;2023-09-19T02:13:28;17.00;99.90
14908;DHT22;7545;52.092;7.006;2023-09-19T02:15:57;17.00;99.90
14908;DHT22;7545;52.092;7.006;2023-09-19T02:18:23;16.90;99.90
14908;DHT22;7545;52.092;7.006;2023-09-19T02:20:48;17.00;99.90
14908;DHT22;7545;52.092;7.006;2023-09-19T02:23:16;16.90;99.90
14908;DHT22;7545;52.092;7.006;2023-09-19T02:25:54;16.90;99.90
14908;DHT22;7545;52.092;7.006;2023-09-19T02:28:20;16.80;99.90
14908;DHT22;7545;52.092;7.006;2023-09-19T02:30:48;16.80;99.90
14908;DHT22;7545;52.092;7.006;2023-09-19T02:33:16;16.80;99.90
14908;DHT22;7545;52.092;7.006;2023-09-19T02:35:43;16.90;99.90
14908;DHT22;7545;52.092;7.006;2023-09-19T02:38:08;16.80;99.90
14908;DHT22;7545;52.092;7.006;2023-09-19T02:40:37;16.80;99.90
14908;DHT22;7545;52.092;7.006;2023-09-19T02:43:03;16.70;99.90
14908;DHT22;7545;52.092;7.006;2023-09-19T02:45:29;16.70;99.90
14908;DHT22;7545;52.092;7.006;2023-09-19T02:47:55;16.70;99.90
14908;DHT22;7545;52.092;7.006;2023-09-19T02:50:21;16.70;99.90
14908;DHT22;7545;52.092;7.006;2023-09-19T02:52:47;16.70;99.90
14908;DHT22;7545;52.092;7.006;2023-09-19T02:55:17;16.70;99.90
14908;DHT22;7545;52.092;7.006;2023-09-19T02:57:50;16.70;99.90
14908;DHT22;7545;52.092;7.006;2023-09-19T03:00:18;16.70;99.90
14908;DHT22;7545;52.092;7.006;2023-09-19T03:02:48;16.60;99.90
14908;DHT22;7545;52.092;7.006;2023-09-19T03:05:14;16.60;99.90
14908;DHT22;7545;52.092;7.006;2023-09-19T03:07:40;16.60;99.90
14908;DHT22;7545;52.092;7.006;2023-09-19T03:10:07;16.50;99.90
14908;DHT22;7545;52.092;7.006;2023-09-19T03:12:33;16.50;99.90
14908;DHT22;7545;52.092;7.006;2023-09-19T03:14:59;16.50;99.90
14908;DHT22;7545;52.092;7.006;2023-09-19T03:17:25;16.50;99.90
14908;DHT22;7545;52.092;7.006;2023-09-19T03:19:51;16.50;99.90
14908;DHT22;7545;52.092;7.006;2023-09-19T03:22:16;16.40;99.90
14908;DHT22;7545;52.092;7.006;2023-09-19T03:24:43;16.40;99.90
14908;DHT22;7545;52.092;7.006;2023-09-19T03:27:10;16.40;99.90
14908;DHT22;7545;52.092;7.006;2023-09-19T03:29:36;16.40;99.90
14908;DHT22;7545;52.092;7.006;2023-09-19T03:32:02;16.30;99.90
14908;DHT22;7545;52.092;7.006;2023-09-19T03:34:28;16.30;99.90
14908;DHT22;7545;52.092;7.006;2023-09-19T03:36:54;16.30;99.90
14908;DHT22;7545;52.092;7.006;2023-09-19T03:39:20;16.30;99.90
14908;DHT22;7545;52.092;7.006;2023-09-19T03:41:46;16.30;99.90
14908;DHT22;7545;52.092;7.006;2023-09-19T03:44:12;16.20;99.90
14908;DHT22;7545;52.092;7.006;2023-09-19T03:46:37;16.20;99.90
14908;DHT22;7545;52.092;7.006;2023-09-19T03:49:04;16.20;99.90
14908;DHT22;7545;52.092;7.006;2023-09-19T03:51:29;16.20;99.90
14908;DHT22;7545;52.092;7.006;2023-09-19T03:53:55;16.20;99.90
14908;DHT22;7545;52.092;7.006;2023-09-19T03:56:21;16.20;99.90
14908;DHT22;7545;52.092;7.006;2023-09-19T03:58:47;16.20;99.90
14908;DHT22;7545;52.092;7.006;2023-09-19T04:01:12;16.10;99.90
14908;DHT22;7545;52.092;7.006;2023-09-19T04:03:39;16.10;99.90
14908;DHT22;7545;52.092;7.006;2023-09-19T04:06:16;16.10;99.90
14908;DHT22;7545;52.092;7.006;2023-09-19T04:08:42;16.00;99.90
14908;DHT22;7545;52.092;7.006;2023-09-19T04:11:09;16.10;99.90
14908;DHT22;7545;52.092;7.006;2023-09-19T04:13:40;16.10;99.90
14908;DHT22;7545;52.092;7.006;2023-09-19T04:16:06;16.10;99.90
14908;DHT22;7545;52.092;7.006;2023-09-19T04:18:35;16.10;99.90
14908;DHT22;7545;52.092;7.006;2023-09-19T04:21:04;16.00;99.90
14908;DHT22;7545;52.092;7.006;2023-09-19T04:23:32;16.00;99.90
14908;DHT22;7545;52.092;7.006;2023-09-19T04:25:58;16.00;99.90
14908;DHT22;7545;52.092;7.006;2023-09-19T04:28:24;15.90;99.90
14908;DHT22;7545;52.092;7.006;2023-09-19T04:30:50;16.00;99.90
14908;DHT22;7545;52.092;7.006;2023-09-19T04:33:15;15.90;99.90
14908;DHT22;7545;52.092;7.006;2023-09-19T04:35:41;15.90;99.90
14908;DHT22;7545;52.092;7.006;2023-09-19T04:38:08;15.90;99.90
14908;DHT22;7545;52.092;7.006;2023-09-19T04:40:34;15.90;99.90
14908;DHT22;7545;52.092;7.006;2023-09-19T04:43:00;15.90;99.90
14908;DHT22;7545;52.092;7.006;2023-09-19T04:45:27;15.90;99.90
14908;DHT22;7545;52.092;7.006;2023-09-19T04:47:53;15.80;99.90
14908;DHT22;7545;52.092;7.006;2023-09-19T04:50:19;15.80;99.90
14908;DHT22;7545;52.092;7.006;2023-09-19T04:52:50;15.80;99.90
14908;DHT22;7545;52.092;7.006;2023-09-19T04:55:17;15.80;99.90
14908;DHT22;7545;52.092;7.006;2023-09-19T04:57:48;15.70;99.90
14908;DHT22;7545;52.092;7.006;2023-09-19T05:00:15;15.70;99.90
14908;DHT22;7545;52.092;7.006;2023-09-19T05:02:43;15.70;99.90
14908;DHT22;7545;52.092;7.006;2023-09-19T05:05:09;15.70;99.90
14908;DHT22;7545;52.092;7.006;2023-09-19T05:07:42;15.70;99.90
14908;DHT22;7545;52.092;7.006;2023-09-19T05:10:09;15.70;99.90
14908;DHT22;7545;52.092;7.006;2023-09-19T05:12:35;15.60;99.90
14908;DHT22;7545;52.092;7.006;2023-09-19T05:15:05;15.60;99.90
14908;DHT22;7545;52.092;7.006;2023-09-19T05:17:32;15.60;99.90
14908;DHT22;7545;52.092;7.006;2023-09-19T05:19:59;15.60;99.90
14908;DHT22;7545;52.092;7.006;2023-09-19T05:22:31;15.60;99.90
14908;DHT22;7545;52.092;7.006;2023-09-19T05:24:58;15.60;99.90
14908;DHT22;7545;52.092;7.006;2023-09-19T05:27:24;15.60;99.90
14908;DHT22;7545;52.092;7.006;2023-09-19T05:29:49;15.50;99.90
14908;DHT22;7545;52.092;7.006;2023-09-19T05:32:18;15.50;99.90
14908;DHT22;7545;52.092;7.006;2023-09-19T05:34:45;15.50;99.90
14908;DHT22;7545;52.092;7.006;2023-09-19T05:37:11;15.60;99.90
14908;DHT22;7545;52.092;7.006;2023-09-19T05:39:36;15.60;99.90
14908;DHT22;7545;52.092;7.006;2023-09-19T05:42:03;15.60;99.90
14908;DHT22;7545;52.092;7.006;2023-09-19T05:44:29;15.50;99.90
14908;DHT22;7545;52.092;7.006;2023-09-19T05:46:54;15.60;99.90
14908;DHT22;7545;52.092;7.006;2023-09-19T05:49:22;15.60;99.90
14908;DHT22;7545;52.092;7.006;2023-09-19T05:51:47;15.60;99.90
14908;DHT22;7545;52.092;7.006;2023-09-19T05:54:13;15.60;99.90
14908;DHT22;7545;52.092;7.006;2023-09-19T05:56:39;15.60;99.90
14908;DHT22;7545;52.092;7.006;2023-09-19T05:59:04;15.60;99.90
14908;DHT22;7545;52.092;7.006;2023-09-19T06:01:31;15.70;99.90
14908;DHT22;7545;52.092;7.006;2023-09-19T06:03:58;15.70;99.90
14908;DHT22;7545;52.092;7.006;2023-09-19T06:06:25;15.60;99.90
14908;DHT22;7545;52.092;7.006;2023-09-19T06:08:51;15.70;99.90
14908;DHT22;7545;52.092;7.006;2023-09-19T06:11:17;15.70;99.90
14908;DHT22;7545;52.092;7.006;2023-09-19T06:13:45;15.70;99.90
14908;DHT22;7545;52.092;7.006;2023-09-19T06:16:12;15.70;99.90
14908;DHT22;7545;52.092;7.006;2023-09-19T06:18:38;15.80;99.90
14908;DHT22;7545;52.092;7.006;2023-09-19T06:21:05;15.80;99.90
14908;DHT22;7545;52.092;7.006;2023-09-19T06:23:30;15.80;99.90
14908;DHT22;7545;52.092;7.006;2023-09-19T06:25:56;15.80;99.90
14908;DHT22;7545;52.092;7.006;2023-09-19T06:28:23;15.80;99.90
14908;DHT22;7545;52.092;7.006;2023-09-19T06:30:50;15.80;99.90
14908;DHT22;7545;52.092;7.006;2023-09-19T06:33:16;15.80;99.90
14908;DHT22;7545;52.092;7.006;2023-09-19T06:35:43;15.80;99.90
14908;DHT22;7545;52.092;7.006;2023-09-19T06:38:10;15.80;99.90
14908;DHT22;7545;52.092;7.006;2023-09-19T06:40:38;15.80;99.90
14908;DHT22;7545;52.092;7.006;2023-09-19T06:43:05;15.80;99.90
14908;DHT22;7545;52.092;7.006;2023-09-19T06:45:30;15.80;99.90
14908;DHT22;7545;52.092;7.006;2023-09-19T06:47:57;15.80;99.90
14908;DHT22;7545;52.092;7.006;2023-09-19T06:50:24;15.80;99.90
14908;DHT22;7545;52.092;7.006;2023-09-19T06:52:54;15.80;99.90
14908;DHT22;7545;52.092;7.006;2023-09-19T06:55:21;15.80;99.90
14908;DHT22;7545;52.092;7.006;2023-09-19T06:57:50;15.80;99.90
14908;DHT22;7545;52.092;7.006;2023-09-19T07:00:16;15.80;99.90
14908;DHT22;7545;52.092;7.006;2023-09-19T07:03:07;15.80;99.90
14908;DHT22;7545;52.092;7.006;2023-09-19T07:05:34;15.80;99.90
14908;DHT22;7545;52.092;7.006;2023-09-19T07:08:03;15.90;99.90
14908;DHT22;7545;52.092;7.006;2023-09-19T07:10:29;15.90;99.90
14908;DHT22;7545;52.092;7.006;2023-09-19T07:13:03;15.90;99.90
14908;DHT22;7545;52.092;7.006;2023-09-19T07:15:32;15.90;99.90
14908;DHT22;7545;52.092;7.006;2023-09-19T07:18:05;16.00;99.90
14908;DHT22;7545;52.092;7.006;2023-09-19T07:20:37;16.00;99.90
14908;DHT22;7545;52.092;7.006;2023-09-19T07:23:03;16.10;99.90
14908;DHT22;7545;52.092;7.006;2023-09-19T07:25:29;16.10;99.90
14908;DHT22;7545;52.092;7.006;2023-09-19T07:27:56;16.10;99.90
14908;DHT22;7545;52.092;7.006;2023-09-19T07:30:22;16.20;99.90
14908;DHT22;7545;52.092;7.006;2023-09-19T07:32:47;16.20;99.90
14908;DHT22;7545;52.092;7.006;2023-09-19T07:35:13;16.20;99.90
14908;DHT22;7545;52.092;7.006;2023-09-19T07:37:40;16.30;99.90
14908;DHT22;7545;52.092;7.006;2023-09-19T07:40:09;16.30;99.90
14908;DHT22;7545;52.092;7.006;2023-09-19T07:42:36;16.30;99.90
14908;DHT22;7545;52.092;7.006;2023-09-19T07:45:04;16.30;99.90
14908;DHT22;7545;52.092;7.006;2023-09-19T07:47:30;16.40;99.90
14908;DHT22;7545;52.092;7.006;2023-09-19T07:49:58;16.40;99.90
14908;DHT22;7545;52.092;7.006;2023-09-19T07:52:24;16.40;99.90
14908;DHT22;7545;52.092;7.006;2023-09-19T07:54:50;16.40;99.90
14908;DHT22;7545;52.092;7.006;2023-09-19T07:57:15;16.50;99.90
14908;DHT22;7545;52.092;7.006;2023-09-19T07:59:41;16.50;99.90
14908;DHT22;7545;52.092;7.006;2023-09-19T08:02:08;16.60;99.90
14908;DHT22;7545;52.092;7.006;2023-09-19T08:04:35;16.60;99.90
14908;DHT22;7545;52.092;7.006;2023-09-19T08:07:01;16.60;99.90
14908;DHT22;7545;52.092;7.006;2023-09-19T08:09:29;16.60;99.90
14908;DHT22;7545;52.092;7.006;2023-09-19T08:11:59;16.60;99.90
14908;DHT22;7545;52.092;7.006;2023-09-19T08:14:28;16.60;99.90
14908;DHT22;7545;52.092;7.006;2023-09-19T08:16:57;16.60;99.90
14908;DHT22;7545;52.092;7.006;2023-09-19T08:19:24;16.70;99.90
14908;DHT22;7545;52.092;7.006;2023-09-19T08:21:55;16.70;99.90
14908;DHT22;7545;52.092;7.006;2023-09-19T08:24:24;16.70;99.90
14908;DHT22;7545;52.092;7.006;2023-09-19T08:26:52;16.80;99.90
14908;DHT22;7545;52.092;7.006;2023-09-19T08:29:20;16.80;99.90
14908;DHT22;7545;52.092;7.006;2023-09-19T08:31:45;16.80;99.90
14908;DHT22;7545;52.092;7.006;2023-09-19T08:34:13;16.90;99.90
14908;DHT22;7545;52.092;7.006;2023-09-19T08:36:38;16.90;99.90
14908;DHT22;7545;52.092;7.006;2023-09-19T08:39:06;16.90;99.90
14908;DHT22;7545;52.092;7.006;2023-09-19T08:41:32;16.90;99.90
14908;DHT22;7545;52.092;7.006;2023-09-19T08:44:00;16.90;99.90
14908;DHT22;7545;52.092;7.006;2023-09-19T08:46:30;16.90;99.90
14908;DHT22;7545;52.092;7.006;2023-09-19T08:49:03;17.00;99.90
14908;DHT22;7545;52.092;7.006;2023-09-19T08:51:39;17.00;99.90
14908;DHT22;7545;52.092;7.006;2023-09-19T08:54:07;17.10;99.90
14908;DHT22;7545;52.092;7.006;2023-09-19T08:56:33;17.00;99.90
14908;DHT22;7545;52.092;7.006;2023-09-19T08:59:06;17.10;99.90
14908;DHT22;7545;52.092;7.006;2023-09-19T09:01:38;17.10;99.90
14908;DHT22;7545;52.092;7.006;2023-09-19T09:04:08;17.20;99.90
14908;DHT22;7545;52.092;7.006;2023-09-19T09:06:34;17.20;99.90
14908;DHT22;7545;52.092;7.006;2023-09-19T09:09:02;17.20;99.90
14908;DHT22;7545;52.092;7.006;2023-09-19T09:11:28;17.30;99.90
14908;DHT22;7545;52.092;7.006;2023-09-19T09:13:54;17.30;99.90
14908;DHT22;7545;52.092;7.006;2023-09-19T09:16:19;17.40;99.90
14908;DHT22;7545;52.092;7.006;2023-09-19T09:18:46;17.40;99.90
14908;DHT22;7545;52.092;7.006;2023-09-19T09:21:12;17.40;99.90
14908;DHT22;7545;52.092;7.006;2023-09-19T09:23:44;17.50;99.90
14908;DHT22;7545;52.092;7.006;2023-09-19T09:26:11;17.50;99.90
14908;DHT22;7545;52.092;7.006;2023-09-19T09:28:45;17.50;99.90
14908;DHT22;7545;52.092;7.006;2023-09-19T09:31:24;17.60;99.90
14908;DHT22;7545;52.092;7.006;2023-09-19T09:33:54;17.60;99.90
14908;DHT22;7545;52.092;7.006;2023-09-19T09:36:34;17.70;99.90
14908;DHT22;7545;52.092;7.006;2023-09-19T09:39:06;17.80;99.90
14908;DHT22;7545;52.092;7.006;2023-09-19T09:41:50;17.80;99.90
14908;DHT22;7545;52.092;7.006;2023-09-19T09:44:17;17.80;99.90
14908;DHT22;7545;52.092;7.006;2023-09-19T09:46:47;17.90;99.90
14908;DHT22;7545;52.092;7.006;2023-09-19T09:49:26;17.80;99.90
14908;DHT22;7545;52.092;7.006;2023-09-19T09:54:28;17.90;99.90
14908;DHT22;7545;52.092;7.006;2023-09-19T09:57:09;17.90;99.90
14908;DHT22;7545;52.092;7.006;2023-09-19T09:59:52;17.90;99.90
14908;DHT22;7545;52.092;7.006;2023-09-19T10:02:28;18.00;99.90
14908;DHT22;7545;52.092;7.006;2023-09-19T10:04:57;18.00;99.90
14908;DHT22;7545;52.092;7.006;2023-09-19T10:07:47;18.10;99.90
14908;DHT22;7545;52.092;7.006;2023-09-19T10:10:38;18.10;99.90
14908;DHT22;7545;52.092;7.006;2023-09-19T10:13:07;18.20;99.90
14908;DHT22;7545;52.092;7.006;2023-09-19T10:15:33;18.30;99.90
14908;DHT22;7545;52.092;7.006;2023-09-19T10:18:01;18.40;99.90
14908;DHT22;7545;52.092;7.006;2023-09-19T10:20:31;18.40;99.90
14908;DHT22;7545;52.092;7.006;2023-09-19T10:22:59;18.40;99.90
14908;DHT22;7545;52.092;7.006;2023-09-19T10:25:29;18.50;99.90
14908;DHT22;7545;52.092;7.006;2023-09-19T10:27:57;18.50;99.90
14908;DHT22;7545;52.092;7.006;2023-09-19T10:30:25;18.60;99.90
14908;DHT22;7545;52.092;7.006;2023-09-19T10:33:02;18.70;99.90
14908;DHT22;7545;52.092;7.006;2023-09-19T10:35:28;18.70;99.90
14908;DHT22;7545;52.092;7.006;2023-09-19T10:38:00;18.80;99.90
14908;DHT22;7545;52.092;7.006;2023-09-19T10:40:29;18.80;99.90
14908;DHT22;7545;52.092;7.006;2023-09-19T10:43:02;18.90;99.90
14908;DHT22;7545;52.092;7.006;2023-09-19T10:45:32;18.90;99.90
14908;DHT22;7545;52.092;7.006;2023-09-19T10:48:02;19.00;99.90
14908;DHT22;7545;52.092;7.006;2023-09-19T10:53:25;18.80;99.90
14908;DHT22;7545;52.092;7.006;2023-09-19T10:55:55;18.80;99.90
14908;DHT22;7545;52.092;7.006;2023-09-19T10:58:31;18.80;99.90
14908;DHT22;7545;52.092;7.006;2023-09-19T11:01:00;18.80;99.90
14908;DHT22;7545;52.092;7.006;2023-09-19T11:03:31;18.80;99.90
14908;DHT22;7545;52.092;7.006;2023-09-19T11:06:13;18.80;99.90
14908;DHT22;7545;52.092;7.006;2023-09-19T11:09:01;18.90;99.90
14908;DHT22;7545;52.092;7.006;2023-09-19T11:11:50;18.90;99.90
14908;DHT22;7545;52.092;7.006;2023-09-19T11:30:51;19.00;99.90
14908;DHT22;7545;52.092;7.006;2023-09-19T11:33:27;19.10;99.90
14908;DHT22;7545;52.092;7.006;2023-09-19T11:43:51;19.10;99.90
14908;DHT22;7545;52.092;7.006;2023-09-19T11:46:18;19.20;99.90
14908;DHT22;7545;52.092;7.006;2023-09-19T11:48:50;19.10;99.90
14908;DHT22;7545;52.092;7.006;2023-09-19T11:51:26;19.20;99.90
14908;DHT22;7545;52.092;7.006;2023-09-19T11:53:58;19.30;99.90
14908;DHT22;7545;52.092;7.006;2023-09-19T11:56:28;19.40;99.90
14908;DHT22;7545;52.092;7.006;2023-09-19T11:58:57;19.50;99.90
14908;DHT22;7545;52.092;7.006;2023-09-19T12:01:30;19.50;99.90
14908;DHT22;7545;52.092;7.006;2023-09-19T12:03:57;19.50;99.90
14908;DHT22;7545;52.092;7.006;2023-09-19T12:06:24;19.50;99.90
14908;DHT22;7545;52.092;7.006;2023-09-19T12:08:50;19.60;99.90
14908;DHT22;7545;52.092;7.006;2023-09-19T12:11:17;19.60;99.90
14908;DHT22;7545;52.092;7.006;2023-09-19T12:13:47;19.70;99.90
14908;DHT22;7545;52.092;7.006;2023-09-19T12:16:18;19.70;99.90
14908;DHT22;7545;52.092;7.006;2023-09-19T12:18:48;19.70;99.90
14908;DHT22;7545;52.092;7.006;2023-09-19T12:26:30;19.70;99.90
14908;DHT22;7545;52.092;7.006;2023-09-19T12:29:02;19.70;99.90
14908;DHT22;7545;52.092;7.006;2023-09-19T12:31:30;19.80;99.90
14908;DHT22;7545;52.092;7.006;2023-09-19T12:34:01;19.70;99.90
14908;DHT22;7545;52.092;7.006;2023-09-19T12:36:27;19.70;99.90
14908;DHT22;7545;52.092;7.006;2023-09-19T12:38:59;19.70;99.90
14908;DHT22;7545;52.092;7.006;2023-09-19T12:41:25;19.70;99.90
14908;DHT22;7545;52.092;7.006;2023-09-19T12:43:52;19.70;99.90
14908;DHT22;7545;52.092;7.006;2023-09-19T12:46:22;19.70;99.90
14908;DHT22;7545;52.092;7.006;2023-09-19T12:51:43;19.70;99.90
14908;DHT22;7545;52.092;7.006;2023-09-19T12:54:09;19.80;99.90
14908;DHT22;7545;52.092;7.006;2023-09-19T12:56:43;19.80;99.90
14908;DHT22;7545;52.092;7.006;2023-09-19T12:59:16;19.80;99.90
14908;DHT22;7545;52.092;7.006;2023-09-19T13:01:42;19.90;99.90
14908;DHT22;7545;52.092;7.006;2023-09-19T13:04:17;19.90;99.90
14908;DHT22;7545;52.092;7.006;2023-09-19T13:06:45;20.00;99.90
14908;DHT22;7545;52.092;7.006;2023-09-19T13:09:14;20.10;99.90
14908;DHT22;7545;52.092;7.006;2023-09-19T13:11:40;20.10;99.90
14908;DHT22;7545;52.092;7.006;2023-09-19T13:14:19;20.20;99.90
14908;DHT22;7545;52.092;7.006;2023-09-19T13:16:55;20.20;99.90
14908;DHT22;7545;52.092;7.006;2023-09-19T13:19:39;20.30;99.90
14908;DHT22;7545;52.092;7.006;2023-09-19T13:22:36;20.30;99.90
14908;DHT22;7545;52.092;7.006;2023-09-19T13:25:01;20.40;99.90
14908;DHT22;7545;52.092;7.006;2023-09-19T13:27:30;20.40;99.90
14908;DHT22;7545;52.092;7.006;2023-09-19T13:29:55;20.40;99.90
14908;DHT22;7545;52.092;7.006;2023-09-19T13:32:21;20.40;99.90
14908;DHT22;7545;52.092;7.006;2023-09-19T13:34:47;20.40;99.90
14908;DHT22;7545;52.092;7.006;2023-09-19T13:37:14;20.40;99.90
14908;DHT22;7545;52.092;7.006;2023-09-19T13:39:41;20.40;99.90
14908;DHT22;7545;52.092;7.006;2023-09-19T13:42:13;20.30;99.90
14908;DHT22;7545;52.092;7.006;2023-09-19T13:44:38;20.30;99.90
14908;DHT22;7545;52.092;7.006;2023-09-19T13:47:06;20.20;99.90
14908;DHT22;7545;52.092;7.006;2023-09-19T13:49:35;20.20;99.90
14908;DHT22;7545;52.092;7.006;2023-09-19T13:52:02;20.10;99.90
14908;DHT22;7545;52.092;7.006;2023-09-19T13:54:31;20.10;99.90
14908;DHT22;7545;52.092;7.006;2023-09-19T13:56:57;20.00;99.90
14908;DHT22;7545;52.092;7.006;2023-09-19T13:59:24;20.00;99.90
14908;DHT22;7545;52.092;7.006;2023-09-19T14:01:50;19.90;99.90
14908;DHT22;7545;52.092;7.006;2023-09-19T14:04:19;19.90;99.90
14908;DHT22;7545;52.092;7.006;2023-09-19T14:06:46;19.80;99.90
14908;DHT22;7545;52.092;7.006;2023-09-19T14:09:12;19.80;99.90
14908;DHT22;7545;52.092;7.006;2023-09-19T14:11:39;19.80;99.90
14908;DHT22;7545;52.092;7.006;2023-09-19T14:14:05;19.80;99.90
14908;DHT22;7545;52.092;7.006;2023-09-19T14:16:31;19.70;99.90
14908;DHT22;7545;52.092;7.006;2023-09-19T14:18:57;19.70;99.90
14908;DHT22;7545;52.092;7.006;2023-09-19T14:21:23;19.70;99.90
14908;DHT22;7545;52.092;7.006;2023-09-19T14:23:49;19.60;99.90
14908;DHT22;7545;52.092;7.006;2023-09-19T14:26:15;19.60;99.90
14908;DHT22;7545;52.092;7.006;2023-09-19T14:28:42;19.60;99.90
14908;DHT22;7545;52.092;7.006;2023-09-19T14:31:09;19.60;99.90
14908;DHT22;7545;52.092;7.006;2023-09-19T14:33:35;19.70;99.90
14908;DHT22;7545;52.092;7.006;2023-09-19T14:36:09;19.70;99.90
14908;DHT22;7545;52.092;7.006;2023-09-19T14:38:37;19.80;99.90
14908;DHT22;7545;52.092;7.006;2023-09-19T14:41:04;19.80;99.90
14908;DHT22;7545;52.092;7.006;2023-09-19T14:43:30;19.80;99.90
14908;DHT22;7545;52.092;7.006;2023-09-19T14:46:02;19.80;99.90
14908;DHT22;7545;52.092;7.006;2023-09-19T14:48:28;19.80;99.90
14908;DHT22;7545;52.092;7.006;2023-09-19T14:50:54;19.70;99.90
14908;DHT22;7545;52.092;7.006;2023-09-19T14:53:21;19.80;99.90
14908;DHT22;7545;52.092;7.006;2023-09-19T14:55:46;19.70;99.90
14908;DHT22;7545;52.092;7.006;2023-09-19T14:58:14;19.70;99.90
14908;DHT22;7545;52.092;7.006;2023-09-19T15:00:39;19.70;99.90
14908;DHT22;7545;52.092;7.006;2023-09-19T15:03:05;19.80;99.90
14908;DHT22;7545;52.092;7.006;2023-09-19T15:05:31;19.80;99.90
14908;DHT22;7545;52.092;7.006;2023-09-19T15:07:56;19.80;99.90
14908;DHT22;7545;52.092;7.006;2023-09-19T15:10:23;19.70;99.90
14908;DHT22;7545;52.092;7.006;2023-09-19T15:12:48;19.80;99.90
14908;DHT22;7545;52.092;7.006;2023-09-19T15:15:14;19.80;99.90
14908;DHT22;7545;52.092;7.006;2023-09-19T15:17:40;19.80;99.90
14908;DHT22;7545;52.092;7.006;2023-09-19T15:20:07;19.80;99.90
14908;DHT22;7545;52.092;7.006;2023-09-19T15:22:36;19.80;99.90
14908;DHT22;7545;52.092;7.006;2023-09-19T15:25:02;19.80;99.90
14908;DHT22;7545;52.092;7.006;2023-09-19T15:27:28;19.80;99.90
14908;DHT22;7545;52.092;7.006;2023-09-19T15:29:56;19.80;99.90
14908;DHT22;7545;52.092;7.006;2023-09-19T15:32:24;19.80;99.90
14908;DHT22;7545;52.092;7.006;2023-09-19T15:34:49;19.80;99.90
14908;DHT22;7545;52.092;7.006;2023-09-19T15:37:15;19.70;99.90
14908;DHT22;7545;52.092;7.006;2023-09-19T15:39:41;19.70;99.90
14908;DHT22;7545;52.092;7.006;2023-09-19T15:42:07;19.80;99.90
14908;DHT22;7545;52.092;7.006;2023-09-19T15:44:33;19.70;99.90
14908;DHT22;7545;52.092;7.006;2023-09-19T15:46:59;19.70;99.90
14908;DHT22;7545;52.092;7.006;2023-09-19T15:49:25;19.70;99.90
14908;DHT22;7545;52.092;7.006;2023-09-19T15:51:50;19.60;99.90
14908;DHT22;7545;52.092;7.006;2023-09-19T15:54:16;19.70;99.90
14908;DHT22;7545;52.092;7.006;2023-09-19T15:56:44;19.70;99.90
14908;DHT22;7545;52.092;7.006;2023-09-19T15:59:10;19.60;99.90
14908;DHT22;7545;52.092;7.006;2023-09-19T16:01:40;19.60;99.90
14908;DHT22;7545;52.092;7.006;2023-09-19T16:04:08;19.50;99.90
14908;DHT22;7545;52.092;7.006;2023-09-19T16:06:35;19.50;99.90
14908;DHT22;7545;52.092;7.006;2023-09-19T16:09:02;19.50;99.90
14908;DHT22;7545;52.092;7.006;2023-09-19T16:11:31;19.50;99.90
14908;DHT22;7545;52.092;7.006;2023-09-19T16:13:57;19.50;99.90
14908;DHT22;7545;52.092;7.006;2023-09-19T16:16:25;19.40;99.90
14908;DHT22;7545;52.092;7.006;2023-09-19T16:18:57;19.40;99.90
14908;DHT22;7545;52.092;7.006;2023-09-19T16:21:27;19.40;99.90
14908;DHT22;7545;52.092;7.006;2023-09-19T16:23:54;19.40;99.90
14908;DHT22;7545;52.092;7.006;2023-09-19T16:26:21;19.30;99.90
14908;DHT22;7545;52.092;7.006;2023-09-19T16:28:49;19.30;99.90
14908;DHT22;7545;52.092;7.006;2023-09-19T16:31:15;19.30;99.90
14908;DHT22;7545;52.092;7.006;2023-09-19T16:33:44;19.30;99.90
14908;DHT22;7545;52.092;7.006;2023-09-19T16:36:11;19.30;99.90
14908;DHT22;7545;52.092;7.006;2023-09-19T16:38:38;19.20;99.90
14908;DHT22;7545;52.092;7.006;2023-09-19T16:41:05;19.20;99.90
14908;DHT22;7545;52.092;7.006;2023-09-19T16:43:32;19.20;99.90